createdAt,value
2022-12-09T00:01:17.363Z,11.23
2022-12-09T00:03:44.609Z,11.27
2022-12-09T00:06:22.971Z,12.10
2022-12-09T00:08:50.088Z,11.43
2022-12-09T00:11:17.510Z,11.20
2022-12-09T00:13:44.140Z,12.52
2022-12-09T00:16:13.738Z,11.70
2022-12-09T00:18:41.768Z,10.88
2022-12-09T00:21:25.792Z,11.63
2022-12-09T00:23:54.116Z,10.50
2022-12-09T00:26:23.439Z,12.43
2022-12-09T00:28:50.896Z,11.05
2022-12-09T00:31:21.483Z,10.88
2022-12-09T00:33:47.924Z,9.55
2022-12-09T00:36:17.692Z,11.00
2022-12-09T00:38:44.050Z,10.50
2022-12-09T00:41:11.357Z,11.18
2022-12-09T00:43:38.540Z,9.35
2022-12-09T00:46:05.700Z,9.85
2022-12-09T00:48:38.187Z,9.27
2022-12-09T00:51:06.731Z,8.57
2022-12-09T00:53:33.815Z,8.48
2022-12-09T00:56:00.799Z,9.25
2022-12-09T00:58:27.239Z,9.20
2022-12-09T01:00:53.889Z,10.30
2022-12-09T01:03:21.432Z,9.07
2022-12-09T01:05:48.886Z,10.20
2022-12-09T01:08:15.883Z,9.25
2022-12-09T01:10:44.728Z,9.05
2022-12-09T01:13:13.039Z,9.63
2022-12-09T01:15:39.648Z,8.75
2022-12-09T01:18:06.797Z,10.43
2022-12-09T01:20:34.340Z,10.23
2022-12-09T01:23:01.148Z,10.38
2022-12-09T01:25:27.849Z,10.07
2022-12-09T01:27:54.391Z,9.55
2022-12-09T01:30:21.011Z,8.90
2022-12-09T01:32:47.835Z,9.40
2022-12-09T01:35:14.914Z,8.95
2022-12-09T01:37:41.499Z,8.57
2022-12-09T01:40:13.217Z,9.90
2022-12-09T01:42:39.824Z,10.10
2022-12-09T01:45:22.032Z,9.98
2022-12-09T01:47:56.592Z,8.45
2022-12-09T01:50:25.345Z,9.17
2022-12-09T01:52:51.795Z,9.40
2022-12-09T01:55:18.578Z,8.57
2022-12-09T01:57:46.050Z,6.75
2022-12-09T02:00:13.572Z,8.05
2022-12-09T02:02:43.703Z,9.43
2022-12-09T02:05:11.346Z,7.00
2022-12-09T02:07:38.226Z,8.40
2022-12-09T02:10:10.807Z,9.90
2022-12-09T02:12:43.419Z,9.02
2022-12-09T02:15:17.936Z,8.17
2022-12-09T02:17:51.478Z,7.93
2022-12-09T02:20:36.688Z,8.02
2022-12-09T02:23:11.355Z,9.05
2022-12-09T02:25:48.210Z,8.50
2022-12-09T02:28:35.004Z,8.47
2022-12-09T02:31:18.389Z,9.52
2022-12-09T02:33:59.931Z,7.80
2022-12-09T02:36:30.991Z,7.38
2022-12-09T02:38:58.977Z,8.15
2022-12-09T02:41:28.791Z,8.57
2022-12-09T02:44:00.404Z,8.73
2022-12-09T02:46:28.491Z,8.02
2022-12-09T02:48:58.525Z,7.05
2022-12-09T02:51:29.792Z,7.95
2022-12-09T02:54:07.503Z,9.07
2022-12-09T02:56:35.007Z,9.00
2022-12-09T02:59:02.464Z,7.70
2022-12-09T03:01:45.648Z,7.88
2022-12-09T03:04:20.250Z,8.55
2022-12-09T03:06:52.225Z,7.63
2022-12-09T03:09:34.831Z,8.52
2022-12-09T03:12:09.038Z,8.18
2022-12-09T03:14:41.144Z,8.57
2022-12-09T03:17:16.190Z,8.40
2022-12-09T03:19:50.640Z,8.13
2022-12-09T03:22:23.516Z,6.88
2022-12-09T03:24:55.836Z,6.63
2022-12-09T03:27:26.550Z,7.22
2022-12-09T03:29:54.664Z,6.85
2022-12-09T03:32:25.661Z,7.90
2022-12-09T03:34:57.927Z,7.82
2022-12-09T03:37:24.490Z,6.72
2022-12-09T03:39:52.137Z,6.32
2022-12-09T03:42:26.607Z,8.70
2022-12-09T03:45:01.250Z,7.80
2022-12-09T03:47:28.460Z,6.00
2022-12-09T03:49:55.334Z,7.43
2022-12-09T03:52:45.920Z,7.63
2022-12-09T03:55:26.401Z,7.53
2022-12-09T03:57:56.308Z,9.13
2022-12-09T04:00:23.292Z,8.57
2022-12-09T04:02:50.334Z,8.05
2022-12-09T04:05:17.276Z,7.45
2022-12-09T04:07:44.118Z,8.75
2022-12-09T04:10:11.249Z,7.40
2022-12-09T04:12:40.242Z,9.15
2022-12-09T04:15:07.528Z,7.32
2022-12-09T04:17:33.958Z,5.15
2022-12-09T04:20:00.673Z,5.78
2022-12-09T04:22:27.525Z,7.27
2022-12-09T04:24:54.177Z,8.15
2022-12-09T04:27:21.127Z,6.20
2022-12-09T04:29:47.565Z,8.63
2022-12-09T04:32:14.378Z,7.43
2022-12-09T04:34:40.859Z,7.43
2022-12-09T04:37:07.442Z,6.85
2022-12-09T04:39:33.890Z,6.47
2022-12-09T04:42:00.534Z,6.43
2022-12-09T04:44:26.923Z,8.88
2022-12-09T04:46:53.302Z,7.50
2022-12-09T04:49:19.863Z,6.97
2022-12-09T04:51:46.416Z,6.07
2022-12-09T04:54:14.576Z,6.10
2022-12-09T04:56:42.507Z,6.72
2022-12-09T04:59:09.448Z,5.40
2022-12-09T05:01:36.420Z,5.07
2022-12-09T05:04:03.655Z,4.78
2022-12-09T05:06:30.767Z,5.57
2022-12-09T05:08:58.190Z,5.47
2022-12-09T05:11:25.172Z,4.03
2022-12-09T05:13:53.337Z,6.43
2022-12-09T05:16:20.701Z,4.65
2022-12-09T05:18:48.959Z,5.30
2022-12-09T05:21:18.621Z,4.25
2022-12-09T05:23:45.874Z,4.70
2022-12-09T05:26:14.705Z,5.28
2022-12-09T05:28:41.632Z,5.72
2022-12-09T05:31:13.136Z,5.20
2022-12-09T05:33:39.816Z,6.60
2022-12-09T05:36:12.631Z,5.13
2022-12-09T05:38:39.840Z,5.82
2022-12-09T05:41:07.405Z,6.57
2022-12-09T05:43:34.698Z,6.95
2022-12-09T05:46:01.854Z,7.07
2022-12-09T05:48:28.710Z,7.43
2022-12-09T05:51:07.287Z,5.53
2022-12-09T05:53:34.625Z,6.63
2022-12-09T05:56:02.190Z,6.53
2022-12-09T05:58:28.909Z,7.05
2022-12-09T06:00:58.641Z,6.77
2022-12-09T06:03:25.401Z,6.88
2022-12-09T06:05:52.342Z,6.90
2022-12-09T06:08:19.188Z,6.82
2022-12-09T06:10:46.277Z,6.82
2022-12-09T06:13:12.849Z,6.90
2022-12-09T06:15:39.726Z,7.43
2022-12-09T06:18:06.494Z,7.03
2022-12-09T06:20:33.099Z,7.15
2022-12-09T06:22:59.554Z,8.18
2022-12-09T06:25:26.192Z,8.40
2022-12-09T06:27:53.897Z,7.40
2022-12-09T06:30:20.963Z,8.85
2022-12-09T06:32:47.598Z,8.48
2022-12-09T06:35:15.190Z,6.70
2022-12-09T06:37:42.325Z,7.77
2022-12-09T06:40:09.567Z,8.18
2022-12-09T06:42:36.961Z,8.18
2022-12-09T06:45:04.125Z,8.88
2022-12-09T06:47:30.647Z,7.60
2022-12-09T06:50:02.627Z,7.27
2022-12-09T06:52:32.898Z,7.60
2022-12-09T06:54:59.432Z,9.10
2022-12-09T06:57:26.206Z,6.97
2022-12-09T06:59:53.034Z,9.30
2022-12-09T07:02:19.793Z,8.47
2022-12-09T07:04:47.052Z,7.72
2022-12-09T07:07:15.109Z,7.53
2022-12-09T07:09:41.976Z,6.90
2022-12-09T07:12:08.600Z,6.80
2022-12-09T07:14:36.916Z,7.40
2022-12-09T07:17:04.012Z,6.82
2022-12-09T07:19:30.723Z,8.23
2022-12-09T07:21:57.932Z,7.07
2022-12-09T07:24:25.400Z,7.63
2022-12-09T07:26:52.081Z,6.97
2022-12-09T07:29:19.487Z,7.32
2022-12-09T07:31:47.745Z,8.13
2022-12-09T07:34:14.509Z,8.50
2022-12-09T07:36:41.409Z,7.35
2022-12-09T07:39:12.715Z,7.83
2022-12-09T07:41:39.494Z,7.18
2022-12-09T07:44:06.315Z,6.38
2022-12-09T07:46:33.240Z,7.05
2022-12-09T07:49:02.118Z,8.60
2022-12-09T07:51:29.615Z,8.10
2022-12-09T07:53:57.144Z,8.32
2022-12-09T07:56:24.765Z,10.88
2022-12-09T07:58:53.499Z,8.77
2022-12-09T08:01:23.189Z,10.23
2022-12-09T08:03:50.631Z,8.47
2022-12-09T08:06:20.632Z,7.88
2022-12-09T08:08:48.456Z,6.80
2022-12-09T08:11:18.790Z,8.00
2022-12-09T08:13:45.657Z,8.40
2022-12-09T08:16:15.294Z,5.57
2022-12-09T08:18:43.256Z,5.80
2022-12-09T08:21:13.428Z,6.80
2022-12-09T08:23:40.259Z,6.70
2022-12-09T08:26:07.560Z,6.13
2022-12-09T08:28:34.306Z,6.03
2022-12-09T08:31:11.364Z,6.93
2022-12-09T08:33:39.046Z,5.75
2022-12-09T08:36:11.530Z,7.18
2022-12-09T08:38:38.272Z,6.55
2022-12-09T08:41:21.503Z,6.03
2022-12-09T08:43:48.427Z,5.57
2022-12-09T08:46:15.457Z,6.55
2022-12-09T08:48:43.575Z,5.95
2022-12-09T08:51:12.374Z,6.95
2022-12-09T08:53:39.787Z,5.63
2022-12-09T08:56:14.811Z,7.68
2022-12-09T08:58:42.369Z,6.35
2022-12-09T09:01:16.400Z,5.68
2022-12-09T09:03:43.743Z,7.38
2022-12-09T09:06:11.192Z,7.63
2022-12-09T09:08:39.182Z,7.65
2022-12-09T09:11:13.442Z,6.60
2022-12-09T09:13:41.639Z,7.53
2022-12-09T09:16:14.991Z,7.63
2022-12-09T09:18:43.673Z,8.47
2022-12-09T09:21:12.604Z,9.63
2022-12-09T09:23:40.177Z,9.48
2022-12-09T09:26:12.286Z,8.75
2022-12-09T09:28:39.279Z,7.18
2022-12-09T09:31:08.675Z,7.47
2022-12-09T09:33:35.792Z,5.63
2022-12-09T09:36:10.259Z,6.45
2022-12-09T09:38:37.646Z,6.30
2022-12-09T09:41:16.660Z,6.72
2022-12-09T09:43:43.794Z,7.90
2022-12-09T09:46:20.828Z,8.05
2022-12-09T09:48:48.696Z,8.40
2022-12-09T09:51:18.637Z,10.13
2022-12-09T09:53:46.133Z,8.70
2022-12-09T09:56:15.842Z,7.80
2022-12-09T09:58:55.014Z,7.82
2022-12-09T10:01:26.891Z,8.20
2022-12-09T10:04:00.223Z,9.00
2022-12-09T10:06:49.926Z,10.48
2022-12-09T10:09:48.104Z,8.33
2022-12-09T10:12:44.003Z,6.88
2022-12-09T10:15:18.983Z,8.75
2022-12-09T10:18:08.839Z,9.50
2022-12-09T10:20:37.027Z,10.15
2022-12-09T10:23:06.883Z,9.77
2022-12-09T10:25:37.715Z,9.77
2022-12-09T10:28:21.540Z,10.77
2022-12-09T10:30:52.689Z,11.57
2022-12-09T10:33:26.922Z,10.52
2022-12-09T10:35:54.202Z,10.27
2022-12-09T10:38:22.186Z,10.40
2022-12-09T10:41:01.352Z,11.77
2022-12-09T10:43:38.858Z,10.45
2022-12-09T10:46:17.814Z,10.48
2022-12-09T10:48:55.992Z,10.17
2022-12-09T10:51:25.141Z,11.45
2022-12-09T10:54:04.471Z,10.93
2022-12-09T10:56:36.818Z,10.38
2022-12-09T10:59:31.415Z,10.65
2022-12-09T11:02:22.037Z,11.10
2022-12-09T11:04:50.215Z,10.60
2022-12-09T11:07:20.103Z,11.07
2022-12-09T11:09:58.806Z,10.10
2022-12-09T11:12:32.059Z,9.90
2022-12-09T11:15:03.894Z,12.03
2022-12-09T11:17:35.933Z,11.50
2022-12-09T11:20:05.702Z,10.90
2022-12-09T11:22:41.152Z,11.13
2022-12-09T11:25:31.957Z,12.13
2022-12-09T11:28:02.022Z,11.13
2022-12-09T11:30:31.753Z,11.40
2022-12-09T11:33:23.621Z,12.77
2022-12-09T11:35:55.664Z,10.85
2022-12-09T11:38:43.848Z,11.70
2022-12-09T11:41:37.539Z,10.83
2022-12-09T11:44:21.523Z,11.52
2022-12-09T11:47:00.137Z,12.35
2022-12-09T11:49:29.081Z,11.80
2022-12-09T11:52:18.785Z,11.82
2022-12-09T11:54:48.783Z,10.13
2022-12-09T11:57:35.071Z,10.80
2022-12-09T12:00:06.614Z,10.38
2022-12-09T12:02:43.454Z,11.20
2022-12-09T12:05:15.681Z,10.70
2022-12-09T12:07:57.022Z,11.47
2022-12-09T12:10:28.794Z,12.05
2022-12-09T12:13:00.980Z,12.18
2022-12-09T12:15:44.441Z,11.52
2022-12-09T12:18:18.495Z,11.43
2022-12-09T12:20:53.920Z,11.20
2022-12-09T12:23:44.629Z,11.90
2022-12-09T12:26:28.636Z,10.35
2022-12-09T12:29:20.147Z,10.82
2022-12-09T12:32:08.219Z,11.77
2022-12-09T12:35:01.754Z,10.10
2022-12-09T12:37:37.138Z,9.43
2022-12-09T12:40:19.607Z,10.40
2022-12-09T12:43:39.002Z,11.55
2022-12-09T12:46:42.742Z,10.70
2022-12-09T12:49:33.994Z,12.80
2022-12-09T12:52:47.509Z,10.13
2022-12-09T12:55:14.313Z,9.25
2022-12-09T12:58:09.210Z,11.15
2022-12-09T13:00:41.877Z,11.70
2022-12-09T13:03:25.958Z,10.03
2022-12-09T13:05:55.457Z,10.35
2022-12-09T13:08:36.761Z,9.75
2022-12-09T13:11:22.391Z,10.73
2022-12-09T13:13:56.797Z,11.15
2022-12-09T13:16:32.306Z,10.90
2022-12-09T13:19:19.897Z,9.50
2022-12-09T13:21:46.917Z,9.73
2022-12-09T13:24:26.981Z,10.48
2022-12-09T13:27:03.679Z,10.13
2022-12-09T13:30:02.873Z,9.67
2022-12-09T13:32:44.393Z,9.82
2022-12-09T13:35:30.250Z,8.50
2022-12-09T13:37:59.928Z,10.48
2022-12-09T13:40:38.733Z,10.40
2022-12-09T13:43:24.039Z,10.93
2022-12-09T13:45:54.631Z,10.80
2022-12-09T13:48:20.969Z,11.55
2022-12-09T13:50:51.558Z,11.05
2022-12-09T13:53:46.378Z,11.43
2022-12-09T13:56:16.248Z,9.73
2022-12-09T13:59:23.416Z,10.65
2022-12-09T14:02:09.749Z,9.75
2022-12-09T14:04:50.652Z,9.98
2022-12-09T14:07:16.971Z,10.35
2022-12-09T14:09:49.145Z,9.93
2022-12-09T14:12:32.597Z,10.95
2022-12-09T14:15:01.527Z,10.13
2022-12-09T14:17:28.706Z,10.95
2022-12-09T14:20:02.863Z,10.38
2022-12-09T14:22:38.222Z,10.73
2022-12-09T14:25:26.461Z,10.90
2022-12-09T14:28:11.635Z,8.90
2022-12-09T14:30:59.767Z,9.05
2022-12-09T14:33:29.688Z,9.32
2022-12-09T14:36:01.745Z,10.13
2022-12-09T14:39:07.938Z,9.38
2022-12-09T14:41:37.819Z,9.55
2022-12-09T14:44:47.681Z,9.93
2022-12-09T14:47:22.848Z,8.77
2022-12-09T14:49:50.827Z,9.20
2022-12-09T14:52:24.954Z,8.73
2022-12-09T14:54:53.863Z,9.95
2022-12-09T14:57:24.334Z,9.20
2022-12-09T14:59:53.210Z,10.10
2022-12-09T15:02:24.153Z,9.50
2022-12-09T15:04:52.862Z,11.15
2022-12-09T15:07:25.329Z,12.13
2022-12-09T15:09:53.603Z,11.88
2022-12-09T15:12:32.095Z,12.20
2022-12-09T15:15:14.426Z,12.07
2022-12-09T15:17:55.566Z,12.20
2022-12-09T15:20:25.968Z,13.18
2022-12-09T15:22:56.317Z,11.43
2022-12-09T15:25:24.434Z,11.80
2022-12-09T15:28:03.484Z,11.83
2022-12-09T15:30:35.398Z,12.45
2022-12-09T15:33:03.090Z,10.77
2022-12-09T15:35:32.370Z,11.30
2022-12-09T15:38:02.896Z,11.75
2022-12-09T15:40:32.072Z,11.63
2022-12-09T15:43:08.602Z,12.30
2022-12-09T15:45:39.002Z,11.23
2022-12-09T15:48:16.576Z,11.30
2022-12-09T15:50:58.026Z,11.52
2022-12-09T15:53:39.013Z,11.53
2022-12-09T15:56:13.826Z,11.25
2022-12-09T15:58:51.270Z,11.20
2022-12-09T16:01:25.643Z,11.05
2022-12-09T16:03:54.087Z,10.30
2022-12-09T16:06:38.457Z,9.67
2022-12-09T16:09:17.402Z,10.10
2022-12-09T16:11:48.178Z,10.85
2022-12-09T16:14:16.769Z,10.40
2022-12-09T16:16:48.886Z,11.18
2022-12-09T16:19:33.617Z,11.00
2022-12-09T16:22:07.473Z,10.57
2022-12-09T16:25:06.139Z,12.57
2022-12-09T16:27:25.576Z,10.73
2022-12-09T16:30:13.268Z,11.05
2022-12-09T16:32:53.058Z,11.70
2022-12-09T16:35:19.690Z,10.77
2022-12-09T16:37:58.442Z,10.88
2022-12-09T16:40:24.823Z,11.13
2022-12-09T16:43:14.058Z,10.55
2022-12-09T16:45:41.949Z,11.43
2022-12-09T16:48:09.402Z,9.48
2022-12-09T16:50:41.711Z,10.75
2022-12-09T16:53:18.430Z,10.48
2022-12-09T16:56:02.202Z,10.95
2022-12-09T16:58:30.478Z,9.80
2022-12-09T17:00:58.517Z,10.02
2022-12-09T17:03:40.778Z,10.95
2022-12-09T17:06:12.627Z,9.70
2022-12-09T17:08:39.052Z,10.68
2022-12-09T17:11:05.649Z,10.53
2022-12-09T17:13:32.007Z,8.85
2022-12-09T17:15:58.710Z,9.25
2022-12-09T17:18:26.246Z,9.35
2022-12-09T17:21:03.462Z,10.35
2022-12-09T17:23:36.113Z,10.37
2022-12-09T17:26:08.001Z,9.50
2022-12-09T17:28:35.716Z,10.73
2022-12-09T17:31:06.501Z,10.38
2022-12-09T17:33:32.901Z,11.00
2022-12-09T17:35:59.660Z,9.00
2022-12-09T17:38:28.859Z,10.25
2022-12-09T17:40:55.877Z,9.60
2022-12-09T17:43:22.323Z,10.50
2022-12-09T17:45:48.809Z,10.75
2022-12-09T17:48:15.181Z,10.27
2022-12-09T17:50:41.583Z,11.43
2022-12-09T17:53:08.041Z,11.23
2022-12-09T17:55:34.505Z,10.73
2022-12-09T17:58:00.946Z,11.75
2022-12-09T18:00:27.303Z,11.00
2022-12-09T18:02:53.636Z,10.77
2022-12-09T18:05:20.010Z,10.98
2022-12-09T18:07:46.377Z,10.57
2022-12-09T18:10:12.858Z,12.70
2022-12-09T18:12:39.340Z,11.27
2022-12-09T18:15:06.150Z,11.60
2022-12-09T18:17:33.903Z,11.80
2022-12-09T18:20:00.714Z,10.90
2022-12-09T18:22:27.476Z,11.55
2022-12-09T18:24:53.861Z,10.17
2022-12-09T18:27:20.262Z,11.20
2022-12-09T18:29:46.646Z,11.00
2022-12-09T18:32:12.993Z,9.85
2022-12-09T18:34:39.366Z,9.82
2022-12-09T18:37:05.767Z,9.50
2022-12-09T18:39:32.185Z,10.77
2022-12-09T18:41:58.545Z,10.25
2022-12-09T18:44:25.606Z,10.75
2022-12-09T18:46:52.161Z,11.60
2022-12-09T18:49:21.518Z,11.33
2022-12-09T18:51:50.035Z,10.20
2022-12-09T18:54:23.304Z,10.70
2022-12-09T18:56:50.933Z,10.05
2022-12-09T18:59:19.248Z,10.73
2022-12-09T19:01:47.243Z,9.80
2022-12-09T19:04:16.418Z,11.20
2022-12-09T19:06:45.170Z,11.75
2022-12-09T19:09:15.121Z,10.43
2022-12-09T19:11:43.684Z,10.32
2022-12-09T19:14:10.628Z,11.57
2022-12-09T19:16:37.909Z,11.02
2022-12-09T19:19:09.708Z,10.63
2022-12-09T19:21:37.553Z,10.43
2022-12-09T19:24:04.179Z,11.45
2022-12-09T19:26:32.542Z,11.53
2022-12-09T19:29:06.162Z,12.63
2022-12-09T19:31:39.191Z,12.38
2022-12-09T19:34:13.514Z,11.75
2022-12-09T19:36:40.443Z,13.90
2022-12-09T19:39:08.503Z,14.13
2022-12-09T19:41:35.941Z,14.55
2022-12-09T19:44:04.664Z,13.30
2022-12-09T19:46:32.334Z,12.32
2022-12-09T19:48:58.984Z,11.85
2022-12-09T19:51:27.259Z,14.07
2022-12-09T19:53:55.229Z,12.48
2022-12-09T19:56:22.294Z,12.38
2022-12-09T19:58:49.710Z,11.38
2022-12-09T20:01:23.391Z,12.57
2022-12-09T20:03:52.450Z,11.67
2022-12-09T20:06:20.314Z,13.18
2022-12-09T20:08:47.722Z,13.27
2022-12-09T20:11:19.934Z,12.35
2022-12-09T20:13:46.900Z,13.52
2022-12-09T20:16:16.590Z,12.27
2022-12-09T20:18:43.435Z,9.98
2022-12-09T20:21:12.120Z,9.10
2022-12-09T20:23:40.062Z,11.73
2022-12-09T20:26:10.020Z,11.68
2022-12-09T20:28:38.305Z,11.87
2022-12-09T20:31:07.457Z,11.63
2022-12-09T20:33:33.950Z,13.02
2022-12-09T20:36:07.985Z,11.13
2022-12-09T20:38:35.150Z,12.98
2022-12-09T20:41:07.418Z,11.20
2022-12-09T20:43:39.266Z,12.15
2022-12-09T20:46:06.917Z,10.73
2022-12-09T20:48:34.022Z,11.40
2022-12-09T20:51:04.090Z,12.15
2022-12-09T20:53:30.535Z,12.03
2022-12-09T20:55:58.166Z,11.73
2022-12-09T20:58:24.694Z,12.02
2022-12-09T21:00:51.120Z,12.02
2022-12-09T21:03:17.956Z,13.45
2022-12-09T21:05:44.515Z,13.53
2022-12-09T21:08:10.977Z,12.07
2022-12-09T21:10:37.608Z,12.57
2022-12-09T21:13:04.154Z,13.18
2022-12-09T21:15:30.596Z,13.38
2022-12-09T21:17:56.946Z,12.93
2022-12-09T21:20:23.421Z,14.00
2022-12-09T21:23:10.603Z,11.20
2022-12-09T21:25:36.137Z,12.45
2022-12-09T21:28:02.477Z,13.32
2022-12-09T21:30:28.883Z,11.30
2022-12-09T21:32:55.550Z,12.02
2022-12-09T21:35:21.879Z,12.70
2022-12-09T21:37:51.838Z,12.18
2022-12-09T21:40:22.738Z,12.32
2022-12-09T21:42:49.128Z,11.50
2022-12-09T21:45:15.957Z,13.15
2022-12-09T21:47:42.443Z,13.15
2022-12-09T21:50:09.356Z,11.80
2022-12-09T21:52:36.001Z,12.45
2022-12-09T21:55:03.426Z,13.73
2022-12-09T21:57:29.804Z,10.65
2022-12-09T21:59:56.244Z,10.50
2022-12-09T22:02:22.682Z,11.48
2022-12-09T22:04:49.109Z,11.77
2022-12-09T22:07:15.519Z,12.97
2022-12-09T22:09:41.924Z,14.35
2022-12-09T22:12:08.478Z,12.88
2022-12-09T22:14:35.185Z,12.57
2022-12-09T22:17:01.636Z,13.18
2022-12-09T22:19:28.091Z,12.70
2022-12-09T22:21:54.479Z,13.65
2022-12-09T22:24:20.849Z,12.43
2022-12-09T22:26:47.281Z,12.43
2022-12-09T22:29:16.142Z,11.23
2022-12-09T22:31:43.652Z,10.83
2022-12-09T22:34:15.276Z,12.02
2022-12-09T22:36:42.114Z,13.13
2022-12-09T22:39:13.137Z,12.90
2022-12-09T22:41:39.666Z,10.77
2022-12-09T22:44:06.006Z,12.60
2022-12-09T22:46:33.768Z,12.93
2022-12-09T22:49:03.474Z,12.50
2022-12-09T22:51:31.661Z,11.18
2022-12-09T22:53:59.130Z,12.98
2022-12-09T22:56:26.762Z,13.63
2022-12-09T22:58:54.141Z,13.35
2022-12-09T23:01:23.577Z,13.68
2022-12-09T23:03:49.961Z,12.52
2022-12-09T23:06:16.338Z,12.45
2022-12-09T23:08:44.300Z,14.03
2022-12-09T23:11:16.602Z,13.55
2022-12-09T23:13:43.754Z,13.38
2022-12-09T23:16:16.147Z,12.57
2022-12-09T23:18:42.840Z,13.90
2022-12-09T23:21:12.244Z,12.93
2022-12-09T23:23:39.701Z,11.27
2022-12-09T23:26:09.079Z,14.57
2022-12-09T23:28:39.437Z,14.93
2022-12-09T23:31:11.297Z,13.75
2022-12-09T23:33:39.203Z,12.77
2022-12-09T23:36:08.649Z,14.10
2022-12-09T23:38:35.604Z,15.57
2022-12-09T23:41:02.753Z,14.00
2022-12-09T23:43:34.233Z,12.40
2022-12-09T23:46:11.404Z,11.67
2022-12-09T23:48:41.656Z,12.45
2022-12-09T23:51:19.931Z,14.13
2022-12-09T23:53:47.915Z,14.20
2022-12-09T23:56:16.866Z,14.50
2022-12-09T23:58:43.250Z,14.57
